sensor_id;sensor_type;location;lat;lon;timestamp;temperature;humidity
34877;DHT22;21086;44.780;17.194;2023-06-26T00:00:33;20.50;1.00
34877;DHT22;21086;44.780;17.194;2023-06-26T00:03:00;20.40;1.00
34877;DHT22;21086;44.780;17.194;2023-06-26T00:05:28;20.20;1.00
34877;DHT22;21086;44.780;17.194;2023-06-26T00:07:57;20.10;1.00
34877;DHT22;21086;44.780;17.194;2023-06-26T00:10:29;20.00;1.00
34877;DHT22;21086;44.780;17.194;2023-06-26T00:12:56;20.00;1.00
34877;DHT22;21086;44.780;17.194;2023-06-26T00:15:23;20.00;1.00
34877;DHT22;21086;44.780;17.194;2023-06-26T00:17:51;19.90;1.00
34877;DHT22;21086;44.780;17.194;2023-06-26T00:20:18;19.80;1.00
34877;DHT22;21086;44.780;17.194;2023-06-26T00:22:45;19.70;1.00
34877;DHT22;21086;44.780;17.194;2023-06-26T00:25:12;19.60;1.00
34877;DHT22;21086;44.780;17.194;2023-06-26T00:27:40;19.70;1.00
34877;DHT22;21086;44.780;17.194;2023-06-26T00:30:07;19.70;1.00
34877;DHT22;21086;44.780;17.194;2023-06-26T00:32:34;19.80;1.00
34877;DHT22;21086;44.780;17.194;2023-06-26T00:35:03;19.70;1.00
34877;DHT22;21086;44.780;17.194;2023-06-26T00:37:30;19.60;1.00
34877;DHT22;21086;44.780;17.194;2023-06-26T00:39:58;19.50;1.00
34877;DHT22;21086;44.780;17.194;2023-06-26T00:42:24;19.50;1.00
34877;DHT22;21086;44.780;17.194;2023-06-26T00:44:51;19.40;1.00
34877;DHT22;21086;44.780;17.194;2023-06-26T00:47:18;19.40;1.00
34877;DHT22;21086;44.780;17.194;2023-06-26T00:49:45;19.40;1.00
34877;DHT22;21086;44.780;17.194;2023-06-26T00:52:12;19.30;1.00
34877;DHT22;21086;44.780;17.194;2023-06-26T00:54:40;19.30;1.00
34877;DHT22;21086;44.780;17.194;2023-06-26T00:57:07;19.20;1.00
34877;DHT22;21086;44.780;17.194;2023-06-26T00:59:34;19.10;1.00
34877;DHT22;21086;44.780;17.194;2023-06-26T01:02:01;19.00;1.00
34877;DHT22;21086;44.780;17.194;2023-06-26T01:04:28;19.00;1.00
34877;DHT22;21086;44.780;17.194;2023-06-26T01:06:59;18.90;1.00
34877;DHT22;21086;44.780;17.194;2023-06-26T01:09:29;18.80;1.00
34877;DHT22;21086;44.780;17.194;2023-06-26T01:11:56;18.80;1.00
34877;DHT22;21086;44.780;17.194;2023-06-26T01:14:24;18.70;1.00
34877;DHT22;21086;44.780;17.194;2023-06-26T01:16:51;18.70;1.00
34877;DHT22;21086;44.780;17.194;2023-06-26T01:19:25;18.70;1.00
34877;DHT22;21086;44.780;17.194;2023-06-26T01:27:35;18.70;1.00
34877;DHT22;21086;44.780;17.194;2023-06-26T01:30:05;18.70;1.00
34877;DHT22;21086;44.780;17.194;2023-06-26T01:32:33;18.70;1.00
34877;DHT22;21086;44.780;17.194;2023-06-26T01:35:02;18.90;1.00
34877;DHT22;21086;44.780;17.194;2023-06-26T01:37:30;18.80;1.00
34877;DHT22;21086;44.780;17.194;2023-06-26T01:39:57;18.70;1.00
34877;DHT22;21086;44.780;17.194;2023-06-26T01:42:24;18.70;1.00
34877;DHT22;21086;44.780;17.194;2023-06-26T01:44:51;18.80;1.00
34877;DHT22;21086;44.780;17.194;2023-06-26T01:47:22;18.80;1.00
34877;DHT22;21086;44.780;17.194;2023-06-26T01:50:03;18.60;1.00
34877;DHT22;21086;44.780;17.194;2023-06-26T01:52:41;18.50;1.00
34877;DHT22;21086;44.780;17.194;2023-06-26T01:55:36;18.40;1.00
34877;DHT22;21086;44.780;17.194;2023-06-26T01:58:06;18.30;1.00
34877;DHT22;21086;44.780;17.194;2023-06-26T02:00:34;18.20;1.00
34877;DHT22;21086;44.780;17.194;2023-06-26T02:03:01;18.20;1.00
34877;DHT22;21086;44.780;17.194;2023-06-26T02:05:30;18.20;1.00
34877;DHT22;21086;44.780;17.194;2023-06-26T02:07:57;18.30;1.00
34877;DHT22;21086;44.780;17.194;2023-06-26T02:10:25;18.30;1.00
34877;DHT22;21086;44.780;17.194;2023-06-26T02:12:52;18.30;1.00
34877;DHT22;21086;44.780;17.194;2023-06-26T02:15:19;18.30;1.00
34877;DHT22;21086;44.780;17.194;2023-06-26T02:17:46;18.30;1.00
34877;DHT22;21086;44.780;17.194;2023-06-26T02:20:15;18.30;1.00
34877;DHT22;21086;44.780;17.194;2023-06-26T02:22:42;18.30;1.00
34877;DHT22;21086;44.780;17.194;2023-06-26T02:25:10;18.20;1.00
34877;DHT22;21086;44.780;17.194;2023-06-26T02:27:37;18.10;1.00
34877;DHT22;21086;44.780;17.194;2023-06-26T02:30:04;18.10;1.00
34877;DHT22;21086;44.780;17.194;2023-06-26T02:32:32;18.00;1.00
34877;DHT22;21086;44.780;17.194;2023-06-26T02:35:00;18.00;1.00
34877;DHT22;21086;44.780;17.194;2023-06-26T02:37:27;18.00;1.00
34877;DHT22;21086;44.780;17.194;2023-06-26T02:39:54;18.00;1.00
34877;DHT22;21086;44.780;17.194;2023-06-26T02:42:21;17.90;1.00
34877;DHT22;21086;44.780;17.194;2023-06-26T02:44:48;17.90;1.00
34877;DHT22;21086;44.780;17.194;2023-06-26T02:47:15;18.00;1.00
34877;DHT22;21086;44.780;17.194;2023-06-26T02:49:42;18.00;1.00
34877;DHT22;21086;44.780;17.194;2023-06-26T02:52:09;18.00;1.00
34877;DHT22;21086;44.780;17.194;2023-06-26T02:54:36;17.90;1.00
34877;DHT22;21086;44.780;17.194;2023-06-26T02:57:03;18.00;1.00
34877;DHT22;21086;44.780;17.194;2023-06-26T02:59:30;18.00;1.00
34877;DHT22;21086;44.780;17.194;2023-06-26T03:01:58;18.00;1.00
34877;DHT22;21086;44.780;17.194;2023-06-26T03:04:26;17.90;1.00
34877;DHT22;21086;44.780;17.194;2023-06-26T03:06:54;17.90;1.00
34877;DHT22;21086;44.780;17.194;2023-06-26T03:09:21;17.90;1.00
34877;DHT22;21086;44.780;17.194;2023-06-26T03:11:48;17.90;1.00
34877;DHT22;21086;44.780;17.194;2023-06-26T03:14:16;18.00;1.00
34877;DHT22;21086;44.780;17.194;2023-06-26T03:16:43;18.00;1.00
34877;DHT22;21086;44.780;17.194;2023-06-26T03:19:10;18.00;1.00
34877;DHT22;21086;44.780;17.194;2023-06-26T03:21:37;18.00;1.00
34877;DHT22;21086;44.780;17.194;2023-06-26T03:24:04;18.00;1.00
34877;DHT22;21086;44.780;17.194;2023-06-26T03:26:31;17.90;1.00
34877;DHT22;21086;44.780;17.194;2023-06-26T03:28:59;17.90;1.00
34877;DHT22;21086;44.780;17.194;2023-06-26T03:31:26;17.90;1.00
34877;DHT22;21086;44.780;17.194;2023-06-26T03:33:53;17.90;1.00
34877;DHT22;21086;44.780;17.194;2023-06-26T03:36:20;18.00;1.00
34877;DHT22;21086;44.780;17.194;2023-06-26T03:38:47;17.90;1.00
34877;DHT22;21086;44.780;17.194;2023-06-26T03:41:14;17.90;1.00
34877;DHT22;21086;44.780;17.194;2023-06-26T03:43:41;18.00;1.00
34877;DHT22;21086;44.780;17.194;2023-06-26T03:46:08;18.30;1.00
34877;DHT22;21086;44.780;17.194;2023-06-26T03:48:35;18.20;1.00
34877;DHT22;21086;44.780;17.194;2023-06-26T03:51:04;18.30;1.00
34877;DHT22;21086;44.780;17.194;2023-06-26T03:53:34;18.20;1.00
34877;DHT22;21086;44.780;17.194;2023-06-26T03:56:01;18.30;1.00
34877;DHT22;21086;44.780;17.194;2023-06-26T03:58:28;18.20;1.00
34877;DHT22;21086;44.780;17.194;2023-06-26T04:00:55;18.20;1.00
34877;DHT22;21086;44.780;17.194;2023-06-26T04:03:22;18.20;1.00
34877;DHT22;21086;44.780;17.194;2023-06-26T04:05:50;18.30;1.00
34877;DHT22;21086;44.780;17.194;2023-06-26T04:08:17;18.40;1.00
34877;DHT22;21086;44.780;17.194;2023-06-26T04:10:45;18.50;1.00
34877;DHT22;21086;44.780;17.194;2023-06-26T04:13:14;18.60;1.00
34877;DHT22;21086;44.780;17.194;2023-06-26T04:15:42;18.70;1.00
34877;DHT22;21086;44.780;17.194;2023-06-26T04:18:12;18.70;1.00
34877;DHT22;21086;44.780;17.194;2023-06-26T04:20:41;18.70;1.00
34877;DHT22;21086;44.780;17.194;2023-06-26T04:23:27;18.70;1.00
34877;DHT22;21086;44.780;17.194;2023-06-26T04:25:54;18.70;1.00
34877;DHT22;21086;44.780;17.194;2023-06-26T04:28:21;18.80;1.00
34877;DHT22;21086;44.780;17.194;2023-06-26T04:30:48;18.90;1.00
34877;DHT22;21086;44.780;17.194;2023-06-26T04:38:45;19.30;1.00
34877;DHT22;21086;44.780;17.194;2023-06-26T04:41:13;19.40;1.00
34877;DHT22;21086;44.780;17.194;2023-06-26T04:43:40;19.40;1.00
34877;DHT22;21086;44.780;17.194;2023-06-26T04:46:07;19.50;1.00
34877;DHT22;21086;44.780;17.194;2023-06-26T04:48:34;19.60;1.00
34877;DHT22;21086;44.780;17.194;2023-06-26T04:51:01;19.70;1.00
34877;DHT22;21086;44.780;17.194;2023-06-26T04:53:28;19.80;1.00
34877;DHT22;21086;44.780;17.194;2023-06-26T04:55:55;19.80;1.00
34877;DHT22;21086;44.780;17.194;2023-06-26T04:58:23;19.90;1.00
34877;DHT22;21086;44.780;17.194;2023-06-26T05:00:49;20.00;1.00
34877;DHT22;21086;44.780;17.194;2023-06-26T05:03:17;20.10;1.00
34877;DHT22;21086;44.780;17.194;2023-06-26T05:05:45;20.10;1.00
34877;DHT22;21086;44.780;17.194;2023-06-26T05:08:16;20.30;1.00
34877;DHT22;21086;44.780;17.194;2023-06-26T05:10:44;20.40;1.00
34877;DHT22;21086;44.780;17.194;2023-06-26T05:13:12;20.40;1.00
34877;DHT22;21086;44.780;17.194;2023-06-26T05:15:41;20.50;1.00
34877;DHT22;21086;44.780;17.194;2023-06-26T05:18:08;20.60;1.00
34877;DHT22;21086;44.780;17.194;2023-06-26T05:20:36;20.70;1.00
34877;DHT22;21086;44.780;17.194;2023-06-26T05:23:04;20.70;1.00
34877;DHT22;21086;44.780;17.194;2023-06-26T05:25:32;20.80;1.00
34877;DHT22;21086;44.780;17.194;2023-06-26T05:28:01;20.90;1.00
34877;DHT22;21086;44.780;17.194;2023-06-26T05:30:28;21.00;1.00
34877;DHT22;21086;44.780;17.194;2023-06-26T05:33:00;21.10;1.00
34877;DHT22;21086;44.780;17.194;2023-06-26T05:35:29;21.30;1.00
34877;DHT22;21086;44.780;17.194;2023-06-26T05:37:59;21.30;1.00
34877;DHT22;21086;44.780;17.194;2023-06-26T05:40:26;21.50;1.00
34877;DHT22;21086;44.780;17.194;2023-06-26T05:42:53;21.50;1.00
34877;DHT22;21086;44.780;17.194;2023-06-26T05:45:20;21.70;1.00
34877;DHT22;21086;44.780;17.194;2023-06-26T05:47:48;21.70;1.00
34877;DHT22;21086;44.780;17.194;2023-06-26T05:50:18;21.70;1.00
34877;DHT22;21086;44.780;17.194;2023-06-26T05:52:46;21.80;1.00
34877;DHT22;21086;44.780;17.194;2023-06-26T05:55:13;21.80;1.00
34877;DHT22;21086;44.780;17.194;2023-06-26T05:57:41;22.00;1.00
34877;DHT22;21086;44.780;17.194;2023-06-26T06:00:09;22.00;1.00
34877;DHT22;21086;44.780;17.194;2023-06-26T06:02:38;22.10;1.00
34877;DHT22;21086;44.780;17.194;2023-06-26T06:05:05;22.20;1.00
34877;DHT22;21086;44.780;17.194;2023-06-26T06:07:33;22.30;1.00
34877;DHT22;21086;44.780;17.194;2023-06-26T06:10:02;22.40;1.00
34877;DHT22;21086;44.780;17.194;2023-06-26T06:12:29;22.40;1.00
34877;DHT22;21086;44.780;17.194;2023-06-26T06:14:56;22.50;1.00
34877;DHT22;21086;44.780;17.194;2023-06-26T06:17:23;22.60;1.00
34877;DHT22;21086;44.780;17.194;2023-06-26T06:19:51;22.60;1.00
34877;DHT22;21086;44.780;17.194;2023-06-26T06:22:18;22.80;1.00
34877;DHT22;21086;44.780;17.194;2023-06-26T06:24:46;22.90;1.00
34877;DHT22;21086;44.780;17.194;2023-06-26T06:27:13;23.00;1.00
34877;DHT22;21086;44.780;17.194;2023-06-26T06:29:41;23.10;1.00
34877;DHT22;21086;44.780;17.194;2023-06-26T06:32:08;23.20;1.00
34877;DHT22;21086;44.780;17.194;2023-06-26T06:34:36;23.20;1.00
34877;DHT22;21086;44.780;17.194;2023-06-26T06:37:03;23.30;1.00
34877;DHT22;21086;44.780;17.194;2023-06-26T06:39:30;23.50;1.00
34877;DHT22;21086;44.780;17.194;2023-06-26T06:41:58;23.50;1.00
34877;DHT22;21086;44.780;17.194;2023-06-26T06:44:25;23.60;1.00
34877;DHT22;21086;44.780;17.194;2023-06-26T06:46:52;23.70;1.00
34877;DHT22;21086;44.780;17.194;2023-06-26T06:49:19;23.80;1.00
34877;DHT22;21086;44.780;17.194;2023-06-26T06:51:46;23.90;1.00
34877;DHT22;21086;44.780;17.194;2023-06-26T06:54:16;24.00;1.00
34877;DHT22;21086;44.780;17.194;2023-06-26T06:56:43;24.20;1.00
34877;DHT22;21086;44.780;17.194;2023-06-26T06:59:10;24.20;1.00
34877;DHT22;21086;44.780;17.194;2023-06-26T07:01:38;24.40;1.00
34877;DHT22;21086;44.780;17.194;2023-06-26T07:04:05;24.50;1.00
34877;DHT22;21086;44.780;17.194;2023-06-26T07:06:32;24.40;1.00
34877;DHT22;21086;44.780;17.194;2023-06-26T07:08:59;24.20;1.00
34877;DHT22;21086;44.780;17.194;2023-06-26T07:11:27;24.20;1.00
34877;DHT22;21086;44.780;17.194;2023-06-26T07:13:55;24.40;1.00
34877;DHT22;21086;44.780;17.194;2023-06-26T07:16:22;24.60;1.00
34877;DHT22;21086;44.780;17.194;2023-06-26T07:18:49;24.70;1.00
34877;DHT22;21086;44.780;17.194;2023-06-26T07:21:17;24.80;1.00
34877;DHT22;21086;44.780;17.194;2023-06-26T07:23:44;25.00;1.00
34877;DHT22;21086;44.780;17.194;2023-06-26T07:26:13;25.10;1.00
34877;DHT22;21086;44.780;17.194;2023-06-26T07:28:41;25.30;1.00
34877;DHT22;21086;44.780;17.194;2023-06-26T07:31:08;25.50;1.00
34877;DHT22;21086;44.780;17.194;2023-06-26T07:33:35;25.70;1.00
34877;DHT22;21086;44.780;17.194;2023-06-26T07:36:02;25.80;1.00
34877;DHT22;21086;44.780;17.194;2023-06-26T07:38:29;26.00;1.00
34877;DHT22;21086;44.780;17.194;2023-06-26T07:40:56;26.10;1.00
34877;DHT22;21086;44.780;17.194;2023-06-26T07:43:23;26.30;1.00
34877;DHT22;21086;44.780;17.194;2023-06-26T07:45:50;26.70;1.00
34877;DHT22;21086;44.780;17.194;2023-06-26T07:48:20;26.80;1.00
34877;DHT22;21086;44.780;17.194;2023-06-26T07:50:47;26.70;1.00
34877;DHT22;21086;44.780;17.194;2023-06-26T07:53:14;26.60;1.00
34877;DHT22;21086;44.780;17.194;2023-06-26T07:55:41;26.40;1.00
34877;DHT22;21086;44.780;17.194;2023-06-26T07:58:09;26.40;1.00
34877;DHT22;21086;44.780;17.194;2023-06-26T08:00:36;26.20;1.00
34877;DHT22;21086;44.780;17.194;2023-06-26T08:03:04;26.10;1.00
34877;DHT22;21086;44.780;17.194;2023-06-26T08:05:34;26.10;1.00
34877;DHT22;21086;44.780;17.194;2023-06-26T08:08:01;25.90;1.00
34877;DHT22;21086;44.780;17.194;2023-06-26T08:10:29;25.80;1.00
34877;DHT22;21086;44.780;17.194;2023-06-26T08:12:57;25.70;1.00
34877;DHT22;21086;44.780;17.194;2023-06-26T08:15:25;25.50;1.00
34877;DHT22;21086;44.780;17.194;2023-06-26T08:17:53;25.10;1.00
34877;DHT22;21086;44.780;17.194;2023-06-26T08:20:20;24.90;1.00
34877;DHT22;21086;44.780;17.194;2023-06-26T08:22:47;24.90;1.00
34877;DHT22;21086;44.780;17.194;2023-06-26T08:25:15;24.90;1.00
34877;DHT22;21086;44.780;17.194;2023-06-26T08:27:42;25.00;1.00
34877;DHT22;21086;44.780;17.194;2023-06-26T08:30:10;25.20;1.00
34877;DHT22;21086;44.780;17.194;2023-06-26T08:32:37;25.30;1.00
34877;DHT22;21086;44.780;17.194;2023-06-26T08:35:06;25.50;1.00
34877;DHT22;21086;44.780;17.194;2023-06-26T08:37:34;25.70;1.00
34877;DHT22;21086;44.780;17.194;2023-06-26T08:40:01;25.80;1.00
34877;DHT22;21086;44.780;17.194;2023-06-26T08:42:29;25.90;1.00
34877;DHT22;21086;44.780;17.194;2023-06-26T08:44:56;25.90;1.00
34877;DHT22;21086;44.780;17.194;2023-06-26T08:47:28;25.70;1.00
34877;DHT22;21086;44.780;17.194;2023-06-26T08:50:08;25.70;1.00
34877;DHT22;21086;44.780;17.194;2023-06-26T08:52:40;25.60;1.00
34877;DHT22;21086;44.780;17.194;2023-06-26T08:55:10;25.70;1.00
34877;DHT22;21086;44.780;17.194;2023-06-26T08:57:40;25.90;1.00
34877;DHT22;21086;44.780;17.194;2023-06-26T09:00:08;26.10;1.00
34877;DHT22;21086;44.780;17.194;2023-06-26T09:02:36;26.20;1.00
34877;DHT22;21086;44.780;17.194;2023-06-26T09:05:04;26.40;1.00
34877;DHT22;21086;44.780;17.194;2023-06-26T09:07:31;26.60;99.90
34877;DHT22;21086;44.780;17.194;2023-06-26T09:09:58;26.70;99.90
34877;DHT22;21086;44.780;17.194;2023-06-26T09:12:27;26.80;99.90
34877;DHT22;21086;44.780;17.194;2023-06-26T09:14:56;26.90;99.90
34877;DHT22;21086;44.780;17.194;2023-06-26T09:17:30;27.00;99.90
34877;DHT22;21086;44.780;17.194;2023-06-26T09:19:58;27.10;99.90
34877;DHT22;21086;44.780;17.194;2023-06-26T09:22:26;27.20;99.90
34877;DHT22;21086;44.780;17.194;2023-06-26T09:24:54;27.00;99.90
34877;DHT22;21086;44.780;17.194;2023-06-26T09:27:22;26.80;99.90
34877;DHT22;21086;44.780;17.194;2023-06-26T09:29:50;26.80;99.90
34877;DHT22;21086;44.780;17.194;2023-06-26T09:32:17;27.00;99.90
34877;DHT22;21086;44.780;17.194;2023-06-26T09:34:44;27.20;99.90
34877;DHT22;21086;44.780;17.194;2023-06-26T09:37:12;27.20;99.90
34877;DHT22;21086;44.780;17.194;2023-06-26T09:39:41;27.40;99.90
34877;DHT22;21086;44.780;17.194;2023-06-26T09:42:08;27.60;99.90
34877;DHT22;21086;44.780;17.194;2023-06-26T09:44:36;27.80;99.90
34877;DHT22;21086;44.780;17.194;2023-06-26T09:47:04;27.80;99.90
34877;DHT22;21086;44.780;17.194;2023-06-26T09:49:31;27.80;99.90
34877;DHT22;21086;44.780;17.194;2023-06-26T09:52:00;27.80;99.90
34877;DHT22;21086;44.780;17.194;2023-06-26T09:54:29;28.00;99.90
34877;DHT22;21086;44.780;17.194;2023-06-26T09:57:07;28.20;99.90
34877;DHT22;21086;44.780;17.194;2023-06-26T09:59:35;28.30;99.90
34877;DHT22;21086;44.780;17.194;2023-06-26T10:02:02;28.50;99.90
34877;DHT22;21086;44.780;17.194;2023-06-26T10:04:29;28.70;99.90
34877;DHT22;21086;44.780;17.194;2023-06-26T10:06:58;28.60;99.90
34877;DHT22;21086;44.780;17.194;2023-06-26T10:09:29;28.60;99.90
34877;DHT22;21086;44.780;17.194;2023-06-26T10:12:02;28.60;99.90
34877;DHT22;21086;44.780;17.194;2023-06-26T10:14:35;28.50;99.90
34877;DHT22;21086;44.780;17.194;2023-06-26T10:17:16;28.60;99.90
34877;DHT22;21086;44.780;17.194;2023-06-26T10:19:45;28.60;99.90
34877;DHT22;21086;44.780;17.194;2023-06-26T10:22:15;28.80;99.90
34877;DHT22;21086;44.780;17.194;2023-06-26T10:24:45;29.00;99.90
34877;DHT22;21086;44.780;17.194;2023-06-26T10:27:17;29.00;99.90
34877;DHT22;21086;44.780;17.194;2023-06-26T10:29:49;28.80;99.90
34877;DHT22;21086;44.780;17.194;2023-06-26T10:32:18;28.90;99.90
34877;DHT22;21086;44.780;17.194;2023-06-26T10:34:45;29.10;99.90
34877;DHT22;21086;44.780;17.194;2023-06-26T10:37:12;29.20;99.90
34877;DHT22;21086;44.780;17.194;2023-06-26T10:42:14;29.40;99.90
34877;DHT22;21086;44.780;17.194;2023-06-26T10:44:43;29.60;99.90
34877;DHT22;21086;44.780;17.194;2023-06-26T10:47:33;29.80;99.90
34877;DHT22;21086;44.780;17.194;2023-06-26T10:50:27;29.90;99.90
34877;DHT22;21086;44.780;17.194;2023-06-26T10:53:09;29.90;99.90
34877;DHT22;21086;44.780;17.194;2023-06-26T10:55:37;30.10;99.90
34877;DHT22;21086;44.780;17.194;2023-06-26T10:58:31;30.10;99.90
34877;DHT22;21086;44.780;17.194;2023-06-26T11:03:39;29.60;99.90
34877;DHT22;21086;44.780;17.194;2023-06-26T11:06:10;29.60;99.90
34877;DHT22;21086;44.780;17.194;2023-06-26T11:08:51;29.50;99.90
34877;DHT22;21086;44.780;17.194;2023-06-26T11:14:32;29.20;99.90
34877;DHT22;21086;44.780;17.194;2023-06-26T11:17:02;29.30;99.90
34877;DHT22;21086;44.780;17.194;2023-06-26T11:19:30;29.30;99.90
34877;DHT22;21086;44.780;17.194;2023-06-26T11:21:59;29.50;99.90
34877;DHT22;21086;44.780;17.194;2023-06-26T11:24:28;29.50;99.90
34877;DHT22;21086;44.780;17.194;2023-06-26T11:27:00;29.70;99.90
34877;DHT22;21086;44.780;17.194;2023-06-26T11:29:27;29.90;99.90
34877;DHT22;21086;44.780;17.194;2023-06-26T11:32:02;30.20;99.90
34877;DHT22;21086;44.780;17.194;2023-06-26T11:34:33;30.50;99.90
34877;DHT22;21086;44.780;17.194;2023-06-26T11:37:01;30.40;99.90
34877;DHT22;21086;44.780;17.194;2023-06-26T11:39:48;30.40;99.90
34877;DHT22;21086;44.780;17.194;2023-06-26T11:42:15;30.40;99.90
34877;DHT22;21086;44.780;17.194;2023-06-26T11:44:43;30.50;99.90
34877;DHT22;21086;44.780;17.194;2023-06-26T11:47:17;30.60;99.90
34877;DHT22;21086;44.780;17.194;2023-06-26T11:49:46;30.70;99.90
34877;DHT22;21086;44.780;17.194;2023-06-26T11:52:14;30.70;99.90
34877;DHT22;21086;44.780;17.194;2023-06-26T11:54:43;30.70;99.90
34877;DHT22;21086;44.780;17.194;2023-06-26T11:57:14;30.70;99.90
34877;DHT22;21086;44.780;17.194;2023-06-26T11:59:41;30.60;99.90
34877;DHT22;21086;44.780;17.194;2023-06-26T12:02:10;30.50;99.90
34877;DHT22;21086;44.780;17.194;2023-06-26T12:04:41;30.60;99.90
34877;DHT22;21086;44.780;17.194;2023-06-26T12:07:10;30.80;99.90
34877;DHT22;21086;44.780;17.194;2023-06-26T12:09:46;30.90;99.90
34877;DHT22;21086;44.780;17.194;2023-06-26T12:12:16;31.00;99.90
34877;DHT22;21086;44.780;17.194;2023-06-26T12:14:44;31.10;99.90
34877;DHT22;21086;44.780;17.194;2023-06-26T12:17:13;31.20;99.90
34877;DHT22;21086;44.780;17.194;2023-06-26T12:19:45;31.40;99.90
34877;DHT22;21086;44.780;17.194;2023-06-26T12:22:17;31.50;99.90
34877;DHT22;21086;44.780;17.194;2023-06-26T12:24:46;31.60;99.90
34877;DHT22;21086;44.780;17.194;2023-06-26T12:27:15;31.70;99.90
34877;DHT22;21086;44.780;17.194;2023-06-26T12:29:52;31.60;99.90
34877;DHT22;21086;44.780;17.194;2023-06-26T12:32:24;31.50;99.90
34877;DHT22;21086;44.780;17.194;2023-06-26T12:34:52;31.40;99.90
34877;DHT22;21086;44.780;17.194;2023-06-26T12:37:20;31.60;99.90
34877;DHT22;21086;44.780;17.194;2023-06-26T12:39:54;31.80;99.90
34877;DHT22;21086;44.780;17.194;2023-06-26T12:42:28;31.70;99.90
34877;DHT22;21086;44.780;17.194;2023-06-26T12:45:13;31.70;99.90
34877;DHT22;21086;44.780;17.194;2023-06-26T12:48:12;31.60;99.90
34877;DHT22;21086;44.780;17.194;2023-06-26T12:50:45;32.10;99.90
34877;DHT22;21086;44.780;17.194;2023-06-26T12:53:13;32.30;99.90
34877;DHT22;21086;44.780;17.194;2023-06-26T12:55:41;32.50;99.90
34877;DHT22;21086;44.780;17.194;2023-06-26T12:58:08;32.70;99.90
34877;DHT22;21086;44.780;17.194;2023-06-26T13:00:36;33.00;99.90
34877;DHT22;21086;44.780;17.194;2023-06-26T13:03:05;33.50;99.90
34877;DHT22;21086;44.780;17.194;2023-06-26T13:05:35;33.60;99.90
34877;DHT22;21086;44.780;17.194;2023-06-26T13:08:02;33.70;99.90
34877;DHT22;21086;44.780;17.194;2023-06-26T13:10:30;33.90;99.90
34877;DHT22;21086;44.780;17.194;2023-06-26T13:12:57;34.10;99.90
34877;DHT22;21086;44.780;17.194;2023-06-26T13:15:24;34.50;99.90
34877;DHT22;21086;44.780;17.194;2023-06-26T13:17:51;35.30;99.90
34877;DHT22;21086;44.780;17.194;2023-06-26T13:20:18;35.90;99.90
34877;DHT22;21086;44.780;17.194;2023-06-26T13:22:45;37.20;99.90
34877;DHT22;21086;44.780;17.194;2023-06-26T13:25:13;39.30;99.90
34877;DHT22;21086;44.780;17.194;2023-06-26T13:27:40;40.70;99.90
34877;DHT22;21086;44.780;17.194;2023-06-26T13:30:11;40.80;99.90
34877;DHT22;21086;44.780;17.194;2023-06-26T13:32:38;41.40;99.90
34877;DHT22;21086;44.780;17.194;2023-06-26T13:35:06;42.80;99.90
34877;DHT22;21086;44.780;17.194;2023-06-26T13:37:33;44.30;99.90
34877;DHT22;21086;44.780;17.194;2023-06-26T13:40:01;44.90;99.90
34877;DHT22;21086;44.780;17.194;2023-06-26T13:42:29;45.20;99.90
34877;DHT22;21086;44.780;17.194;2023-06-26T13:44:57;45.20;99.90
34877;DHT22;21086;44.780;17.194;2023-06-26T13:47:31;46.00;99.90
34877;DHT22;21086;44.780;17.194;2023-06-26T13:50:01;46.30;99.90
34877;DHT22;21086;44.780;17.194;2023-06-26T13:52:29;47.00;99.90
34877;DHT22;21086;44.780;17.194;2023-06-26T13:54:55;47.60;99.90
34877;DHT22;21086;44.780;17.194;2023-06-26T13:57:23;48.70;99.90
34877;DHT22;21086;44.780;17.194;2023-06-26T13:59:50;48.60;99.90
34877;DHT22;21086;44.780;17.194;2023-06-26T14:02:17;48.60;99.90
34877;DHT22;21086;44.780;17.194;2023-06-26T14:04:44;49.10;99.90
34877;DHT22;21086;44.780;17.194;2023-06-26T14:07:11;49.80;99.90
34877;DHT22;21086;44.780;17.194;2023-06-26T14:09:39;51.30;99.90
34877;DHT22;21086;44.780;17.194;2023-06-26T14:12:07;51.70;99.90
34877;DHT22;21086;44.780;17.194;2023-06-26T14:14:34;52.40;99.90
34877;DHT22;21086;44.780;17.194;2023-06-26T14:17:01;52.50;99.90
34877;DHT22;21086;44.780;17.194;2023-06-26T14:19:29;52.00;99.90
34877;DHT22;21086;44.780;17.194;2023-06-26T14:21:56;52.40;99.90
34877;DHT22;21086;44.780;17.194;2023-06-26T14:24:26;53.10;99.90
34877;DHT22;21086;44.780;17.194;2023-06-26T14:27:01;52.10;99.90
34877;DHT22;21086;44.780;17.194;2023-06-26T14:29:29;52.10;99.90
34877;DHT22;21086;44.780;17.194;2023-06-26T14:31:56;53.00;99.90
34877;DHT22;21086;44.780;17.194;2023-06-26T14:34:23;53.00;99.90
34877;DHT22;21086;44.780;17.194;2023-06-26T14:36:51;52.60;99.90
34877;DHT22;21086;44.780;17.194;2023-06-26T14:39:18;53.70;99.90
34877;DHT22;21086;44.780;17.194;2023-06-26T14:41:45;53.70;99.90
34877;DHT22;21086;44.780;17.194;2023-06-26T14:44:15;53.90;99.90
34877;DHT22;21086;44.780;17.194;2023-06-26T14:46:43;54.80;99.90
34877;DHT22;21086;44.780;17.194;2023-06-26T14:49:10;55.30;99.90
34877;DHT22;21086;44.780;17.194;2023-06-26T14:51:37;55.90;99.90
34877;DHT22;21086;44.780;17.194;2023-06-26T14:54:05;55.40;99.90
34877;DHT22;21086;44.780;17.194;2023-06-26T14:56:32;55.20;99.90
34877;DHT22;21086;44.780;17.194;2023-06-26T14:58:59;55.50;99.90
34877;DHT22;21086;44.780;17.194;2023-06-26T15:01:26;55.70;99.90
34877;DHT22;21086;44.780;17.194;2023-06-26T15:03:53;54.90;99.90
34877;DHT22;21086;44.780;17.194;2023-06-26T15:06:21;55.30;99.90
34877;DHT22;21086;44.780;17.194;2023-06-26T15:08:48;54.20;99.90
34877;DHT22;21086;44.780;17.194;2023-06-26T15:11:15;54.30;99.90
34877;DHT22;21086;44.780;17.194;2023-06-26T15:13:42;54.50;99.90
34877;DHT22;21086;44.780;17.194;2023-06-26T15:16:09;54.40;99.90
34877;DHT22;21086;44.780;17.194;2023-06-26T15:18:36;54.80;99.90
34877;DHT22;21086;44.780;17.194;2023-06-26T15:21:03;55.00;99.90
34877;DHT22;21086;44.780;17.194;2023-06-26T15:23:30;55.30;99.90
34877;DHT22;21086;44.780;17.194;2023-06-26T15:25:57;55.50;99.90
34877;DHT22;21086;44.780;17.194;2023-06-26T15:28:25;55.10;99.90
34877;DHT22;21086;44.780;17.194;2023-06-26T15:30:52;54.10;99.90
34877;DHT22;21086;44.780;17.194;2023-06-26T15:33:19;54.50;99.90
34877;DHT22;21086;44.780;17.194;2023-06-26T15:35:46;54.00;99.90
34877;DHT22;21086;44.780;17.194;2023-06-26T15:38:13;53.90;99.90
34877;DHT22;21086;44.780;17.194;2023-06-26T15:40:40;53.80;99.90
34877;DHT22;21086;44.780;17.194;2023-06-26T15:43:07;53.40;99.90
34877;DHT22;21086;44.780;17.194;2023-06-26T15:45:35;53.00;99.90
34877;DHT22;21086;44.780;17.194;2023-06-26T15:48:02;52.80;99.90
34877;DHT22;21086;44.780;17.194;2023-06-26T15:50:29;51.70;99.90
34877;DHT22;21086;44.780;17.194;2023-06-26T15:52:56;51.40;99.90